Elkins-Randolph Co-Jennings Randolph Field
KEKN : now visible

Airfield :











YOU CAN JOIN US ON...

 
LOGIN :

Register | Disclaimer

   EN    FR    IT 

 









Legend :    VFR   Marginal VFR   IFR   Intensive IFR   Very Intensive IFR
Visi :
Ceiling :
>= 8 km
>= 3000ft
5 to 8 km
1000 to 3000 ft
1500m to 5 km
500 to 1000 ft
800 to 1500m
200 to 500 ft
< 800m
< 200 ft
Symbols :   Thunderstorms  Fog  Heavy snow  Heavy precipitations  Wind > 20 kt






- Airport Elevation : 1987 ft


KEKN - Elkins-Randolph Co-Jennings Randolph Field

CURRENT METAR :
  • 171851Z AUTO 27012G25KT 7SM UP BKN027 BKN031 OVC040 M05/M11 A2949 RMK AO2 PK WND 29028/1807 SLP013 P0000 T10501111

EXPIRED METARs :
  • 171751Z AUTO 27013G22KT 5SM UP BKN025 BKN046 OVC060 M05/M11 A2946 RMK AO2 PK WND 30028/1711 UPB34SNE34 SLP001 P0000 60003 T10501111 11033 21056 51023
  • 171724Z AUTO 26011G23KT 240V300 3SM -SN OVC021 M06/M11 A2945 RMK AO2 PK WND 30028/1711 P0000 T10561106
  • 171651Z AUTO 27015G27KT 3/4SM -SN OVC018 M06/M10 A2944 RMK AO2 PK WND 29030/1634 SLP995 P0001 T10561100
  • 171626Z AUTO 27015G26KT 3/4SM -SN BKN016 OVC021 M06/M10 A2943 RMK AO2 PK WND 26026/1622 P0001 T10561100

TAF KEKN
Valid from the 17 at 18:00 until the 18 at 18:00 UTC


171734Z 1718/1818 28015G32KT 3SM -SHSN OVC021
FM172200 28016G29KT 2SM -SHSN OVC010
FM180400 28014G26KT 4SM -SHSN BKN014
FM180900 27010G23KT P6SM OVC010
FM181700 26007KT P6SM BKN030
KZDC FIR / North America



MET'MAP, your aeronautical weather chart ! - Copyright ORBIFLY December 2007 - Disclaimer

ORBIFLY MET'MAP TEAM :

Programming & Development : Alexandra Zaïnal
Concept & original design : Baudouin d'Aumeries
Assistance for programming : Marc-Olivier Méhu
Technical & hardware support : Manuel Goepfert

Contact : metmap@orbifly.com




SOURCES & CREDITS :

   NOAA       Earth
Advisory